Time;durP1;ratioP1;P1;durP2;ratioP2;P2;SDS_P1;SDS_P2;PMS_P1;PMS_P2;Temp;Humidity;BMP_temperature;BMP_pressure;BME280_temperature;BME280_humidity;BME280_pressure;Samples;Min_cycle;Max_cycle;Signal;HPM_P1;HPM_P2
2022/02/08 00:02:02;;;;;;;2.13;1.90;;;0.60;99.90;;;;;;4939720;28;20059;-48
2022/02/08 00:04:29;;;;;;;2.35;2.22;;;0.50;99.90;;;;;;4938156;28;20444;-48
2022/02/08 00:06:55;;;;;;;2.20;2.00;;;0.50;99.90;;;;;;4942560;28;20031;-47
2022/02/08 00:09:22;;;;;;;4.47;2.08;;;0.50;99.90;;;;;;4940667;28;20035;-48
2022/02/08 00:11:47;;;;;;;5.53;2.50;;;0.50;99.90;;;;;;4937338;28;20460;-49
2022/02/08 00:14:13;;;;;;;2.28;2.17;;;0.40;99.90;;;;;;4934303;28;20765;-48
2022/02/08 00:16:39;;;;;;;2.58;1.95;;;0.40;99.90;;;;;;4938356;28;20016;-48
2022/02/08 00:19:05;;;;;;;2.90;1.75;;;0.40;99.90;;;;;;4937659;28;20435;-48
2022/02/08 00:21:31;;;;;;;1.98;1.85;;;0.40;99.90;;;;;;4938438;28;20039;-48
2022/02/08 00:23:56;;;;;;;5.13;2.70;;;0.40;99.90;;;;;;4939478;28;20035;-48
2022/02/08 00:26:22;;;;;;;2.17;1.67;;;0.40;99.90;;;;;;4936709;28;20043;-48
2022/02/08 00:28:48;;;;;;;2.55;2.35;;;0.40;99.90;;;;;;4937725;28;20062;-51
2022/02/08 00:31:13;;;;;;;2.85;2.13;;;0.30;99.90;;;;;;4934361;28;20039;-49
2022/02/08 00:33:39;;;;;;;3.17;1.90;;;0.30;99.90;;;;;;4937105;28;20458;-51
2022/02/08 00:36:05;;;;;;;4.32;2.03;;;0.30;99.90;;;;;;4938872;28;20036;-50
2022/02/08 00:38:33;;;;;;;2.28;1.85;;;0.30;99.90;;;;;;4941867;28;20039;-49
2022/02/08 00:41:00;;;;;;;3.17;1.95;;;0.20;99.90;;;;;;4939265;28;20055;-49
2022/02/08 00:43:31;;;;;;;4.85;1.80;;;0.20;99.90;;;;;;4939840;28;20035;-52
2022/02/08 00:46:11;;;;;;;1.80;1.70;;;0.10;99.90;;;;;;4937103;28;20054;-48
2022/02/08 00:48:42;;;;;;;4.85;2.10;;;0.10;99.90;;;;;;4936766;28;20149;-49
2022/02/08 00:51:08;;;;;;;3.35;2.20;;;0.00;99.90;;;;;;4936972;28;20923;-50
2022/02/08 00:53:35;;;;;;;4.28;2.30;;;0.00;99.90;;;;;;4938109;28;20568;-50
2022/02/08 00:56:00;;;;;;;4.53;1.92;;;-0.10;99.90;;;;;;4936602;28;20035;-49
2022/02/08 00:58:26;;;;;;;8.88;2.00;;;-0.10;99.90;;;;;;4937597;28;20331;-49
2022/02/08 01:00:52;;;;;;;3.20;1.92;;;-0.10;99.90;;;;;;4934682;28;20043;-49
2022/02/08 01:03:18;;;;;;;6.20;2.28;;;-0.10;99.90;;;;;;4934699;28;20447;-49
2022/02/08 01:05:49;;;;;;;1.92;1.83;;;-0.20;99.90;;;;;;4938715;28;20110;-49
2022/02/08 01:08:15;;;;;;;2.35;2.15;;;-0.20;99.90;;;;;;4937783;28;20035;-49
2022/02/08 01:10:42;;;;;;;3.92;1.77;;;-0.20;99.90;;;;;;4938837;28;20039;-49
2022/02/08 01:13:09;;;;;;;1.83;1.60;;;-0.20;99.90;;;;;;4935071;28;20094;-49
2022/02/08 01:15:35;;;;;;;4.72;2.20;;;-0.10;99.90;;;;;;4935931;28;20078;-49
2022/02/08 01:18:02;;;;;;;3.75;1.92;;;-0.20;99.90;;;;;;4936373;28;20035;-49
2022/02/08 01:20:37;;;;;;;3.58;1.83;;;-0.10;99.90;;;;;;4934763;28;20035;-50
2022/02/08 01:23:06;;;;;;;2.17;1.55;;;-0.10;99.90;;;;;;4939267;28;20483;-49
2022/02/08 01:25:40;;;;;;;6.55;2.33;;;-0.10;99.90;;;;;;4937867;28;20035;-49
2022/02/08 01:28:35;;;;;;;2.70;1.63;;;-0.10;99.90;;;;;;4937354;28;20130;-49
2022/02/08 01:31:04;;;;;;;3.63;1.67;;;-0.10;99.90;;;;;;4939710;28;20055;-47
2022/02/08 01:33:52;;;;;;;2.45;1.55;;;0.00;99.90;;;;;;4934077;28;20027;-48
2022/02/08 01:36:31;;;;;;;4.55;2.42;;;0.00;99.90;;;;;;4938419;28;20039;-48
2022/02/08 01:39:12;;;;;;;3.75;1.92;;;0.10;99.90;;;;;;4940715;28;20039;-48
2022/02/08 01:50:19;;;;;;;8.88;2.08;;;0.10;99.90;;;;;;4930314;28;20135;-48
2022/02/08 01:52:45;;;;;;;4.93;2.15;;;0.10;99.90;;;;;;4936653;28;20823;-50
2022/02/08 01:55:13;;;;;;;1.83;1.65;;;0.10;99.90;;;;;;4918320;28;20095;-50
2022/02/08 01:57:39;;;;;;;6.55;1.90;;;0.20;99.90;;;;;;4935888;28;20118;-48
2022/02/08 02:00:08;;;;;;;7.90;3.00;;;0.10;99.90;;;;;;4938730;28;20062;-48
2022/02/08 02:02:34;;;;;;;5.97;1.92;;;0.20;99.90;;;;;;4935541;28;20412;-48
2022/02/08 02:05:00;;;;;;;3.08;1.95;;;0.20;99.90;;;;;;4936630;28;21180;-49
2022/02/08 02:07:26;;;;;;;4.80;1.95;;;0.20;99.90;;;;;;4936670;28;20110;-49
2022/02/08 02:09:52;;;;;;;4.72;1.85;;;0.20;99.90;;;;;;4935816;28;20378;-49
2022/02/08 02:12:18;;;;;;;3.75;2.22;;;0.30;99.90;;;;;;4932429;28;20197;-49
2022/02/08 02:14:44;;;;;;;3.83;2.20;;;0.30;99.90;;;;;;4934223;28;20145;-48
2022/02/08 02:17:11;;;;;;;4.85;2.45;;;0.30;99.90;;;;;;4968250;28;20027;-48
2022/02/08 02:19:38;;;;;;;4.60;2.72;;;0.30;99.90;;;;;;4933496;28;20023;-48
2022/02/08 02:22:06;;;;;;;4.97;2.50;;;0.30;99.90;;;;;;4935497;28;20042;-50
2022/02/08 02:24:32;;;;;;;7.40;1.90;;;0.30;99.90;;;;;;4936550;28;20038;-49
2022/02/08 02:26:59;;;;;;;2.55;2.00;;;0.30;99.90;;;;;;4937922;28;20042;-48
2022/02/08 02:29:26;;;;;;;2.78;1.63;;;0.40;99.90;;;;;;4941261;28;20027;-49
2022/02/08 02:31:53;;;;;;;3.03;1.80;;;0.40;99.90;;;;;;4936535;28;20047;-48
2022/02/08 02:34:20;;;;;;;2.22;1.73;;;0.40;99.90;;;;;;4921063;28;20078;-48
2022/02/08 02:36:46;;;;;;;3.50;1.98;;;0.40;99.90;;;;;;4937982;28;20380;-49
2022/02/08 02:39:14;;;;;;;5.55;2.10;;;0.40;99.90;;;;;;4940816;28;20038;-48
2022/02/08 02:41:42;;;;;;;4.75;1.90;;;0.40;99.90;;;;;;4934707;28;20042;-49
2022/02/08 02:44:10;;;;;;;5.18;2.42;;;0.40;99.90;;;;;;4933102;28;20070;-50
2022/02/08 02:46:36;;;;;;;4.22;1.73;;;0.40;99.90;;;;;;4933819;28;20121;-50
2022/02/08 02:49:03;;;;;;;3.72;2.78;;;0.40;99.90;;;;;;4932494;28;20066;-50
2022/02/08 02:51:30;;;;;;;1.65;1.63;;;0.50;99.90;;;;;;4936014;28;20027;-48
2022/02/08 02:53:56;;;;;;;5.45;1.90;;;0.50;99.90;;;;;;4935695;28;20496;-49
2022/02/08 02:56:22;;;;;;;1.42;1.30;;;0.50;99.90;;;;;;4936050;28;20218;-48
2022/02/08 02:58:49;;;;;;;3.13;1.75;;;0.50;99.90;;;;;;4936947;28;21885;-48
2022/02/08 03:01:31;;;;;;;4.13;1.67;;;0.50;99.90;;;;;;4932685;28;20039;-48
2022/02/08 03:20:08;;;;;;;3.45;2.53;;;0.60;99.90;;;;;;4937459;28;20042;-48
2022/02/08 03:22:34;;;;;;;2.95;2.35;;;0.60;99.90;;;;;;4940655;28;20039;-48
2022/02/08 03:24:59;;;;;;;3.95;1.80;;;0.60;99.90;;;;;;4937946;28;20023;-48
2022/02/08 03:27:25;;;;;;;1.98;1.45;;;0.60;99.90;;;;;;4939364;28;20035;-49
2022/02/08 03:29:51;;;;;;;2.78;2.35;;;0.60;99.90;;;;;;4937797;28;20038;-50
2022/02/08 03:32:18;;;;;;;3.63;2.08;;;0.60;99.90;;;;;;4939163;28;20037;-48
2022/02/08 03:34:44;;;;;;;1.60;1.45;;;0.70;99.90;;;;;;4937458;28;20043;-48
2022/02/08 03:37:10;;;;;;;1.85;1.75;;;0.70;99.90;;;;;;4937652;28;20139;-48
2022/02/08 03:39:39;;;;;;;3.20;1.63;;;0.70;99.90;;;;;;4939741;28;20469;-48
2022/02/08 03:42:18;;;;;;;4.28;1.88;;;0.70;99.90;;;;;;4937165;28;20114;-48
2022/02/08 03:44:46;;;;;;;2.63;1.70;;;0.70;99.90;;;;;;4937419;28;20040;-48
2022/02/08 03:47:12;;;;;;;1.98;1.58;;;0.70;99.90;;;;;;4939043;28;20511;-49
2022/02/08 03:49:40;;;;;;;3.33;1.55;;;0.70;99.90;;;;;;4938470;28;20059;-49
2022/02/08 03:52:06;;;;;;;3.20;1.85;;;0.80;99.90;;;;;;4947264;28;20043;-48
2022/02/08 03:54:35;;;;;;;4.10;2.38;;;0.80;99.90;;;;;;4947781;28;20462;-48
2022/02/08 03:57:04;;;;;;;3.22;2.10;;;0.80;99.90;;;;;;4945970;28;20023;-48
2022/02/08 03:59:29;;;;;;;3.75;2.47;;;0.90;99.90;;;;;;4948269;28;20059;-48
2022/02/08 04:02:26;;;;;;;4.70;2.20;;;0.80;99.90;;;;;;4943089;28;20061;-49
2022/02/08 04:04:57;;;;;;;2.83;2.25;;;0.90;99.90;;;;;;4948585;28;20047;-48
2022/02/08 04:07:34;;;;;;;8.10;3.40;;;0.90;99.90;;;;;;4944294;28;20039;-47
2022/02/08 04:10:03;;;;;;;2.00;1.40;;;0.90;99.90;;;;;;4946677;28;20515;-47
2022/02/08 04:12:41;;;;;;;1.95;1.85;;;0.90;99.90;;;;;;4944059;28;20032;-50
2022/02/08 04:34:22;;;;;;;1.70;1.55;;;1.00;99.90;;;;;;4951545;28;20054;-48
2022/02/08 04:42:04;;;;;;;2.45;1.90;;;1.10;99.90;;;;;;4947079;28;20106;-48
2022/02/08 04:44:40;;;;;;;2.97;1.42;;;1.10;99.90;;;;;;4949976;28;20038;-49
2022/02/08 04:47:28;;;;;;;2.08;1.55;;;1.10;99.90;;;;;;4946995;28;20030;-48
2022/02/08 04:49:55;;;;;;;5.72;2.42;;;1.10;99.90;;;;;;4955247;28;20050;-48
2022/02/08 04:52:23;;;;;;;2.60;1.50;;;1.10;99.90;;;;;;4948216;28;20259;-49
2022/02/08 04:57:28;;;;;;;4.10;1.80;;;1.20;99.90;;;;;;4944955;28;20477;-48
2022/02/08 05:43:17;;;;;;;4.35;1.95;;;1.30;99.90;;;;;;4947211;28;20023;-48
2022/02/08 05:48:26;;;;;;;4.93;2.33;;;1.30;99.90;;;;;;4941216;28;20283;-48
2022/02/08 05:50:59;;;;;;;2.90;1.83;;;1.30;99.90;;;;;;4940709;28;20085;-48
2022/02/08 05:53:33;;;;;;;4.57;2.83;;;1.40;99.90;;;;;;4943548;28;20046;-48
2022/02/08 05:55:59;;;;;;;1.65;1.55;;;1.30;99.90;;;;;;4946636;28;20122;-48
2022/02/08 05:58:26;;;;;;;7.78;2.33;;;1.40;99.90;;;;;;4944243;28;20396;-49
2022/02/08 06:00:52;;;;;;;3.70;1.63;;;1.40;99.90;;;;;;4942641;28;20077;-48
2022/02/08 06:03:19;;;;;;;2.10;1.33;;;1.40;99.90;;;;;;4944549;28;20121;-48
2022/02/08 06:05:44;;;;;;;1.55;1.45;;;1.40;99.90;;;;;;4945358;28;20118;-48
2022/02/08 06:08:10;;;;;;;1.75;1.65;;;1.40;99.90;;;;;;4942220;28;20037;-48
2022/02/08 06:10:45;;;;;;;2.15;1.60;;;1.40;99.90;;;;;;4946052;28;20636;-49
2022/02/08 06:13:11;;;;;;;2.67;1.58;;;1.40;99.90;;;;;;4937660;28;20047;-48
2022/02/08 06:15:38;;;;;;;2.80;1.33;;;1.50;99.90;;;;;;4946562;28;20024;-48
2022/02/08 06:18:04;;;;;;;4.00;1.60;;;1.40;99.90;;;;;;4942846;28;20035;-48
2022/02/08 06:20:29;;;;;;;2.42;1.52;;;1.50;99.90;;;;;;4947315;28;20023;-48
2022/02/08 06:22:55;;;;;;;1.52;1.42;;;1.50;99.90;;;;;;4943715;28;20520;-48
2022/02/08 06:25:21;;;;;;;2.40;1.38;;;1.50;99.90;;;;;;4942011;28;20031;-48
2022/02/08 06:27:50;;;;;;;2.90;1.77;;;1.50;99.90;;;;;;4945528;28;20039;-48
2022/02/08 06:30:18;;;;;;;2.45;1.38;;;1.50;99.90;;;;;;4940686;28;20030;-48
2022/02/08 06:32:44;;;;;;;2.60;1.77;;;1.50;99.90;;;;;;4940985;28;20163;-48
2022/02/08 06:35:30;;;;;;;1.60;1.50;;;1.50;99.90;;;;;;4944806;28;20027;-48
2022/02/08 06:37:58;;;;;;;3.20;1.45;;;1.50;99.90;;;;;;4942703;28;20034;-48
2022/02/08 06:40:24;;;;;;;1.95;1.70;;;1.50;99.90;;;;;;4942320;28;20031;-48
2022/02/08 06:42:49;;;;;;;1.52;1.38;;;1.60;99.90;;;;;;4930810;28;20027;-48
2022/02/08 06:45:16;;;;;;;4.47;1.70;;;1.60;99.90;;;;;;4944879;28;20031;-48
2022/02/08 06:47:44;;;;;;;1.55;1.40;;;1.60;99.90;;;;;;4944724;28;20035;-48
2022/02/08 06:50:11;;;;;;;3.17;1.73;;;1.60;99.90;;;;;;4944029;28;20130;-48
2022/02/08 06:52:36;;;;;;;1.40;1.30;;;1.60;99.90;;;;;;4938582;28;20059;-48
2022/02/08 06:55:04;;;;;;;1.40;1.30;;;1.60;99.90;;;;;;4935986;28;20473;-48
2022/02/08 06:57:37;;;;;;;2.08;1.50;;;1.60;99.90;;;;;;4937401;28;20031;-48
2022/02/08 07:00:04;;;;;;;1.75;1.48;;;1.60;99.90;;;;;;4938451;28;20027;-48
2022/02/08 07:02:30;;;;;;;2.75;1.60;;;1.70;99.90;;;;;;4937065;28;20050;-48
2022/02/08 07:04:56;;;;;;;3.35;1.50;;;1.70;99.90;;;;;;4937938;28;20031;-48
2022/02/08 07:07:22;;;;;;;5.50;1.45;;;1.70;99.90;;;;;;4935760;28;20389;-47
2022/02/08 07:09:47;;;;;;;6.03;2.90;;;1.70;99.90;;;;;;4938308;28;20122;-48
2022/02/08 07:12:13;;;;;;;3.72;1.48;;;1.70;99.90;;;;;;4938025;28;20031;-48
2022/02/08 07:14:40;;;;;;;2.22;1.90;;;1.70;99.90;;;;;;4939198;28;20047;-48
2022/02/08 07:17:06;;;;;;;1.08;1.08;;;1.80;99.90;;;;;;4933920;28;20031;-48
2022/02/08 07:19:31;;;;;;;3.92;1.45;;;1.80;99.90;;;;;;4933467;28;20042;-48
2022/02/08 07:21:57;;;;;;;1.95;1.42;;;1.80;99.90;;;;;;4938078;28;20102;-49
2022/02/08 07:24:23;;;;;;;1.85;1.25;;;1.80;99.90;;;;;;4939016;28;20031;-49
2022/02/08 07:26:52;;;;;;;1.65;1.25;;;1.80;99.90;;;;;;4939438;28;20754;-49
2022/02/08 07:29:18;;;;;;;2.13;1.65;;;1.80;99.90;;;;;;4940184;28;20046;-49
2022/02/08 07:32:04;;;;;;;1.85;1.30;;;1.90;99.90;;;;;;4935292;28;20890;-49
2022/02/08 07:34:39;;;;;;;0.82;0.82;;;1.90;99.90;;;;;;4938260;28;20031;-48
2022/02/08 07:39:49;;;;;;;3.58;1.58;;;1.90;99.90;;;;;;4938770;28;20385;-48
2022/02/08 07:42:14;;;;;;;1.35;1.20;;;2.00;99.90;;;;;;4937075;28;20122;-49
2022/02/08 07:44:40;;;;;;;2.28;1.50;;;2.00;99.90;;;;;;4938516;28;20043;-49
2022/02/08 07:47:06;;;;;;;2.83;1.40;;;2.00;99.90;;;;;;4936674;28;20061;-48
2022/02/08 07:49:33;;;;;;;1.48;1.27;;;2.00;99.90;;;;;;4941480;28;20059;-49
2022/02/08 07:51:59;;;;;;;3.45;1.80;;;2.00;99.90;;;;;;4938275;28;20035;-49
2022/02/08 07:54:25;;;;;;;1.92;1.05;;;2.10;99.90;;;;;;4939574;28;20039;-48
2022/02/08 07:56:51;;;;;;;3.13;1.83;;;2.00;99.90;;;;;;4941322;28;20028;-48
2022/02/08 07:59:17;;;;;;;1.40;1.30;;;2.10;99.90;;;;;;4941406;28;20031;-49
2022/02/08 08:01:42;;;;;;;5.90;1.17;;;2.10;99.90;;;;;;4939743;28;20106;-48
2022/02/08 08:04:08;;;;;;;5.78;1.60;;;2.10;99.90;;;;;;4940034;28;21735;-50
2022/02/08 08:06:33;;;;;;;1.30;1.20;;;2.20;99.90;;;;;;4938324;28;20028;-49
2022/02/08 08:08:59;;;;;;;2.33;0.90;;;2.20;99.90;;;;;;4946461;28;20063;-48
2022/02/08 08:11:25;;;;;;;3.05;2.00;;;2.20;99.90;;;;;;4944210;28;20074;-48
2022/02/08 08:14:01;;;;;;;1.42;1.33;;;2.20;99.90;;;;;;4944833;28;20786;-49
2022/02/08 08:21:40;;;;;;;3.15;1.30;;;2.30;99.90;;;;;;4940503;28;20097;-49
2022/02/08 08:24:08;;;;;;;4.90;1.58;;;2.40;99.90;;;;;;4939601;28;20042;-49
2022/02/08 08:26:34;;;;;;;3.95;1.58;;;2.40;99.90;;;;;;4939374;28;20042;-49
2022/02/08 08:29:00;;;;;;;1.67;1.52;;;2.40;99.90;;;;;;4939288;28;20061;-49
2022/02/08 08:31:25;;;;;;;1.42;1.15;;;2.50;99.90;;;;;;4941421;28;20053;-49
2022/02/08 08:33:51;;;;;;;5.20;1.25;;;2.50;99.90;;;;;;4940547;28;20035;-48
2022/02/08 08:36:19;;;;;;;1.08;1.08;;;2.50;99.90;;;;;;4938588;28;20541;-48
2022/02/08 08:38:47;;;;;;;1.42;1.20;;;2.50;99.90;;;;;;4942449;28;20029;-48
2022/02/08 08:41:29;;;;;;;3.20;1.23;;;2.50;99.90;;;;;;4938985;28;20571;-48
2022/02/08 08:52:35;;;;;;;3.92;1.45;;;2.60;99.90;;;;;;4944259;28;20729;-48
2022/02/08 08:55:03;;;;;;;4.00;1.40;;;2.70;99.90;;;;;;4938955;28;20453;-48
2022/02/08 08:57:29;;;;;;;2.42;1.35;;;2.70;99.90;;;;;;4937552;28;20529;-48
2022/02/08 08:59:55;;;;;;;7.28;1.67;;;2.70;99.90;;;;;;4941279;28;20024;-48
2022/02/08 09:02:21;;;;;;;5.82;1.98;;;2.70;99.90;;;;;;4941108;28;20111;-48
2022/02/08 09:04:48;;;;;;;3.50;1.60;;;2.70;99.90;;;;;;4941576;28;20030;-48
2022/02/08 09:07:16;;;;;;;6.28;1.67;;;2.70;99.90;;;;;;4939703;28;20068;-48
2022/02/08 09:09:46;;;;;;;2.28;1.20;;;2.80;99.90;;;;;;4942871;28;20031;-48
2022/02/08 09:15:16;;;;;;;2.25;1.38;;;2.90;99.90;;;;;;4926138;28;20051;-48
2022/02/08 09:29:08;;;;;;;4.28;1.40;;;3.10;99.90;;;;;;4931912;28;20496;-49
2022/02/08 09:31:36;;;;;;;5.07;2.35;;;3.10;99.90;;;;;;4935471;28;20146;-48
2022/02/08 09:34:02;;;;;;;5.27;1.53;;;3.10;99.90;;;;;;4939512;28;20579;-48
2022/02/08 09:36:28;;;;;;;0.93;0.93;;;3.20;99.90;;;;;;4939531;28;20751;-48
2022/02/08 09:38:55;;;;;;;1.15;0.85;;;3.20;99.90;;;;;;4937855;28;21664;-49
2022/02/08 09:41:23;;;;;;;1.90;1.25;;;3.20;99.90;;;;;;4939177;28;20063;-48
2022/02/08 09:43:50;;;;;;;5.10;1.13;;;3.30;99.90;;;;;;4938857;28;20031;-48
2022/02/08 09:46:17;;;;;;;2.03;1.10;;;3.30;99.90;;;;;;4938966;28;20039;-48
2022/02/08 09:48:48;;;;;;;2.17;1.23;;;3.30;99.90;;;;;;4939980;28;20055;-48
2022/02/08 09:51:14;;;;;;;5.00;1.58;;;3.30;99.90;;;;;;4938959;28;20031;-48
2022/02/08 09:53:41;;;;;;;3.58;1.40;;;3.30;99.90;;;;;;4938578;28;20043;-49
2022/02/08 09:56:08;;;;;;;7.10;1.40;;;3.40;99.90;;;;;;4943428;28;20441;-48
2022/02/08 09:58:34;;;;;;;3.90;1.73;;;3.40;99.90;;;;;;4946352;28;20078;-49
2022/02/08 10:01:07;;;;;;;7.63;1.60;;;3.50;99.90;;;;;;4944677;28;20031;-48
2022/02/08 10:03:34;;;;;;;2.50;1.42;;;3.60;99.90;;;;;;4936887;28;21819;-48
2022/02/08 10:06:00;;;;;;;3.55;1.27;;;3.60;99.90;;;;;;4940148;28;20039;-48
2022/02/08 10:08:26;;;;;;;4.93;1.27;;;3.70;99.90;;;;;;4936312;28;20485;-48
2022/02/08 10:10:51;;;;;;;1.40;1.30;;;3.80;99.90;;;;;;4939234;28;20043;-48
2022/02/08 10:13:59;;;;;;;1.27;1.10;;;3.80;99.90;;;;;;4939189;28;20034;-48
2022/02/08 10:22:10;;;;;;;1.70;1.05;;;3.80;99.90;;;;;;4939486;28;20034;-48
2022/02/08 10:24:37;;;;;;;0.73;0.73;;;3.80;99.90;;;;;;4938387;28;20055;-48
2022/02/08 10:27:18;;;;;;;4.72;1.27;;;3.90;99.90;;;;;;4937482;28;20655;-48
2022/02/08 10:38:05;;;;;;;2.85;1.15;;;4.10;99.90;;;;;;4936642;28;20061;-48
2022/02/08 10:40:36;;;;;;;1.95;1.10;;;4.10;99.90;;;;;;4944730;28;20070;-48
2022/02/08 10:43:04;;;;;;;3.78;1.25;;;4.20;99.90;;;;;;4938310;28;21145;-49
2022/02/08 10:45:34;;;;;;;4.20;1.10;;;4.20;99.90;;;;;;4938740;28;20026;-48
2022/02/08 10:48:03;;;;;;;1.83;1.20;;;4.20;99.90;;;;;;4936637;28;20118;-49
2022/02/08 10:50:30;;;;;;;0.95;0.95;;;4.20;99.90;;;;;;4938361;28;20055;-49
2022/02/08 10:52:58;;;;;;;3.15;1.52;;;4.30;99.90;;;;;;4938375;28;20492;-48
2022/02/08 10:55:42;;;;;;;3.65;1.58;;;4.40;99.90;;;;;;4938100;28;20038;-48
2022/02/08 11:01:02;;;;;;;5.85;1.25;;;4.50;99.90;;;;;;4937616;28;20165;-48
2022/02/08 11:03:51;;;;;;;1.13;1.00;;;4.40;99.90;;;;;;4938716;28;20043;-48
2022/02/08 11:06:29;;;;;;;1.63;1.02;;;4.50;99.90;;;;;;4937145;28;20981;-48
2022/02/08 11:14:47;;;;;;;1.95;1.08;;;4.70;99.90;;;;;;4938340;28;20683;-48
2022/02/08 11:20:36;;;;;;;2.30;1.00;;;4.70;99.90;;;;;;4952556;28;20043;-48
2022/02/08 11:23:21;;;;;;;1.20;1.10;;;4.80;99.90;;;;;;4933601;28;20694;-48
2022/02/08 11:25:50;;;;;;;1.17;1.00;;;4.80;99.90;;;;;;4934595;28;20027;-48
2022/02/08 11:28:30;;;;;;;2.30;1.00;;;4.90;99.90;;;;;;4933765;28;20061;-48
2022/02/08 11:43:33;;;;;;;2.78;0.98;;;5.00;99.90;;;;;;4938149;28;20098;-49
2022/02/08 11:46:00;;;;;;;3.10;1.08;;;5.00;99.90;;;;;;4935019;28;20027;-48
2022/02/08 11:51:41;;;;;;;1.95;1.48;;;5.00;99.90;;;;;;4940027;28;20771;-49
2022/02/08 11:57:13;;;;;;;0.77;0.77;;;5.10;99.90;;;;;;4941601;28;20038;-49
2022/02/08 12:04:55;;;;;;;2.83;0.90;;;5.10;99.90;;;;;;4939947;28;20043;-48
2022/02/08 12:07:21;;;;;;;2.10;1.13;;;5.20;99.90;;;;;;4942908;28;20110;-48
2022/02/08 12:09:57;;;;;;;2.03;1.10;;;5.20;99.70;;;;;;4940585;28;20031;-48
2022/02/08 12:34:40;;;;;;;1.77;1.25;;;5.50;97.80;;;;;;4938565;28;20153;-49
2022/02/08 13:04:23;;;;;;;1.60;0.90;;;5.60;95.20;;;;;;4940747;28;20035;-49
2022/02/08 14:01:45;;;;;;;0.90;0.90;;;6.00;99.30;;;;;;4938473;28;20042;-48
2022/02/08 14:24:48;;;;;;;2.50;1.00;;;6.10;99.90;;;;;;4946218;28;20087;-49
2022/02/08 14:30:04;;;;;;;1.30;1.20;;;6.10;99.90;;;;;;4934857;28;20046;-49
2022/02/08 14:32:37;;;;;;;3.65;1.20;;;6.20;99.20;;;;;;4939808;28;20042;-49
2022/02/08 15:10:03;;;;;;;3.33;1.40;;;8.10;90.60;;;;;;4942408;28;20042;-49
2022/02/08 15:12:33;;;;;;;4.25;1.48;;;7.80;90.50;;;;;;4944541;28;20032;-49
2022/02/08 15:15:07;;;;;;;3.15;1.17;;;7.70;94.60;;;;;;4946793;28;20028;-49
2022/02/08 15:17:33;;;;;;;4.80;1.45;;;7.60;95.00;;;;;;4949497;28;20031;-50
2022/02/08 15:20:02;;;;;;;1.08;0.93;;;7.60;91.70;;;;;;4947599;28;20074;-49
2022/02/08 15:22:27;;;;;;;3.22;1.33;;;7.70;94.30;;;;;;4961761;28;20123;-49
2022/02/08 15:24:54;;;;;;;2.13;1.05;;;7.70;93.70;;;;;;4944437;28;20691;-49
2022/02/08 15:27:21;;;;;;;1.80;1.25;;;7.80;94.30;;;;;;4940736;28;20059;-50
2022/02/08 15:29:53;;;;;;;1.52;1.02;;;7.80;93.00;;;;;;4947158;28;20043;-49
2022/02/08 15:32:18;;;;;;;1.55;0.95;;;7.80;92.80;;;;;;4945775;28;20483;-50
2022/02/08 15:34:44;;;;;;;1.55;0.90;;;7.70;90.50;;;;;;4948812;28;20027;-50
2022/02/08 15:37:11;;;;;;;1.95;1.10;;;7.70;93.10;;;;;;4944960;28;20148;-49
2022/02/08 15:39:37;;;;;;;1.95;1.10;;;7.70;94.00;;;;;;4950799;28;20027;-49
2022/02/08 15:42:03;;;;;;;3.80;1.58;;;7.70;92.50;;;;;;4948401;28;20086;-49
2022/02/08 15:44:28;;;;;;;2.92;1.15;;;7.60;94.90;;;;;;4947913;28;20035;-49
2022/02/08 15:46:55;;;;;;;2.22;0.90;;;7.60;93.20;;;;;;4947880;28;20038;-50
2022/02/08 15:49:21;;;;;;;1.83;1.30;;;7.40;95.20;;;;;;4944293;28;21191;-49
2022/02/08 15:51:53;;;;;;;2.55;1.10;;;7.30;95.50;;;;;;4947440;28;20027;-49
2022/02/08 15:54:39;;;;;;;3.33;1.25;;;7.10;97.10;;;;;;4947601;28;20789;-49
2022/02/08 16:05:23;;;;;;;2.47;1.45;;;6.90;99.90;;;;;;4964132;28;20046;-49
2022/02/08 16:07:57;;;;;;;;;;;6.80;99.90;;;;;;4947112;28;20054;-50
2022/02/08 16:10:43;;;;;;;2.17;0.95;;;6.70;99.30;;;;;;4949387;28;19910;-49
2022/02/08 16:13:27;;;;;;;1.75;1.10;;;6.70;99.90;;;;;;4948158;28;20030;-49
2022/02/08 16:18:28;;;;;;;3.05;1.20;;;6.60;99.90;;;;;;4944347;28;20398;-48
2022/02/08 16:21:24;;;;;;;3.00;1.70;;;6.50;99.90;;;;;;4947399;28;20500;-49
2022/02/08 16:24:03;;;;;;;5.25;1.92;;;6.50;99.90;;;;;;4945949;28;20455;-49
2022/02/08 16:27:02;;;;;;;3.22;2.13;;;6.40;99.90;;;;;;4948988;28;20061;-49
2022/02/08 16:32:25;;;;;;;4.32;1.40;;;6.30;99.90;;;;;;4946257;28;20535;-49
2022/02/08 16:59:25;;;;;;;7.88;2.42;;;6.00;99.90;;;;;;4945358;28;20072;-48
2022/02/08 17:01:51;;;;;;;3.85;2.40;;;5.90;99.90;;;;;;4949155;28;20067;-49
2022/02/08 17:04:17;;;;;;;2.53;2.10;;;5.90;99.90;;;;;;4948758;28;20059;-49
2022/02/08 17:06:42;;;;;;;2.67;1.80;;;5.70;99.90;;;;;;4948505;28;20094;-48
2022/02/08 17:09:15;;;;;;;7.72;1.55;;;5.70;99.90;;;;;;4951366;28;20035;-49
2022/02/08 17:11:55;;;;;;;2.55;1.45;;;5.60;99.90;;;;;;4951885;28;20042;-49
2022/02/08 17:14:31;;;;;;;1.63;1.52;;;5.60;99.90;;;;;;4950469;28;20027;-49
2022/02/08 17:17:29;;;;;;;2.65;2.08;;;5.60;99.90;;;;;;4949432;28;20496;-49
2022/02/08 17:47:15;;;;;;;8.10;4.07;;;5.50;99.90;;;;;;4950175;28;20076;-49
2022/02/08 17:49:40;;;;;;;20.40;8.15;;;5.40;99.90;;;;;;4944592;28;20051;-49
2022/02/08 17:52:06;;;;;;;8.90;5.60;;;5.40;99.90;;;;;;4946687;28;20046;-49
2022/02/08 17:54:32;;;;;;;16.00;9.02;;;5.40;99.90;;;;;;4943370;28;20039;-49
2022/02/08 17:56:57;;;;;;;17.17;7.35;;;5.40;99.90;;;;;;4944756;28;20472;-49
2022/02/08 17:59:24;;;;;;;5.85;3.80;;;5.50;99.90;;;;;;4945908;28;20031;-49
2022/02/08 18:01:53;;;;;;;9.20;4.43;;;5.50;99.90;;;;;;4948170;28;20047;-49
2022/02/08 18:04:19;;;;;;;4.15;2.88;;;5.40;99.90;;;;;;4945800;28;20567;-49
2022/02/08 18:06:45;;;;;;;7.75;3.88;;;5.40;99.90;;;;;;4941963;28;20038;-49
2022/02/08 18:09:12;;;;;;;9.63;5.47;;;5.40;99.90;;;;;;4945306;28;20385;-51
2022/02/08 18:11:41;;;;;;;10.80;5.05;;;5.40;99.90;;;;;;4945862;28;20106;-49
2022/02/08 18:14:09;;;;;;;5.20;3.88;;;5.30;99.90;;;;;;4945887;28;20031;-49
2022/02/08 18:16:36;;;;;;;6.45;3.28;;;5.40;99.90;;;;;;4947909;28;20035;-49
2022/02/08 18:19:11;;;;;;;3.60;2.97;;;5.30;99.90;;;;;;4946903;28;20030;-50
2022/02/08 18:22:12;;;;;;;8.10;3.53;;;5.20;99.90;;;;;;4944920;28;20023;-49
2022/02/08 18:24:45;;;;;;;7.07;3.63;;;5.10;99.90;;;;;;4947497;28;20051;-49
2022/02/08 19:07:54;;;;;;;7.78;4.00;;;4.50;99.90;;;;;;4940259;28;20039;-49
2022/02/08 19:18:37;;;;;;;9.07;4.72;;;4.40;99.90;;;;;;4947114;28;20047;-47
2022/02/08 19:23:32;;;;;;;;;;;4.40;99.90;;;;;;4945768;28;20588;-48
2022/02/08 19:25:58;;;;;;;6.30;4.15;;;4.40;99.90;;;;;;4945290;28;19926;-49
2022/02/08 19:28:24;;;;;;;10.93;5.15;;;4.50;99.90;;;;;;4945610;28;20036;-48
2022/02/08 19:30:52;;;;;;;7.30;4.80;;;4.40;99.90;;;;;;4943112;28;20058;-48
2022/02/08 19:33:18;;;;;;;8.30;4.57;;;4.40;99.90;;;;;;4950002;28;20047;-47
2022/02/08 19:35:44;;;;;;;10.95;4.97;;;4.40;99.90;;;;;;4946624;28;20396;-49
2022/02/08 19:38:11;;;;;;;6.88;4.32;;;4.30;99.90;;;;;;4946562;28;20367;-48
2022/02/08 19:40:37;;;;;;;7.03;5.03;;;4.40;99.90;;;;;;4943116;28;20083;-48
2022/02/08 19:43:03;;;;;;;9.73;5.50;;;4.40;99.90;;;;;;4949186;28;20019;-48
2022/02/08 19:45:36;;;;;;;8.95;4.50;;;4.40;99.90;;;;;;4944905;28;20039;-47
2022/02/08 19:48:01;;;;;;;6.97;4.53;;;4.30;99.90;;;;;;4946760;28;20069;-49
2022/02/08 19:50:27;;;;;;;5.32;3.75;;;4.30;99.90;;;;;;4947058;28;20071;-48
2022/02/08 19:52:52;;;;;;;6.72;4.05;;;4.30;99.90;;;;;;4949147;28;20085;-48
2022/02/08 19:57:52;;;;;;;6.43;3.95;;;4.30;99.90;;;;;;4950310;28;20114;-48
2022/02/08 20:00:23;;;;;;;;;;;4.30;99.90;;;;;;4946858;28;20238;-48
2022/02/08 20:02:52;;;;;;;5.95;3.58;;;4.30;99.90;;;;;;4949537;28;19914;-48
2022/02/08 20:05:18;;;;;;;8.20;3.80;;;4.30;99.90;;;;;;4954836;28;20035;-48
2022/02/08 20:07:44;;;;;;;5.53;3.72;;;4.30;99.90;;;;;;4943629;28;20484;-48
2022/02/08 20:10:10;;;;;;;8.95;4.05;;;4.20;99.90;;;;;;4950191;28;20532;-48
2022/02/08 20:12:35;;;;;;;6.75;4.15;;;4.10;99.90;;;;;;4947709;28;20053;-48
2022/02/08 20:15:06;;;;;;;6.53;4.50;;;4.10;99.90;;;;;;4946748;28;20509;-48
2022/02/08 20:17:33;;;;;;;6.05;4.50;;;4.10;99.90;;;;;;4951597;28;20031;-48
2022/02/08 20:20:06;;;;;;;8.23;4.35;;;4.10;99.90;;;;;;4945757;28;20449;-48
2022/02/08 20:22:32;;;;;;;8.73;4.68;;;4.10;99.90;;;;;;4947369;28;20025;-48
2022/02/08 20:24:58;;;;;;;7.30;4.00;;;4.10;99.90;;;;;;4953885;28;20114;-48
2022/02/08 20:29:54;;;;;;;6.72;4.32;;;4.00;99.90;;;;;;4951176;28;20501;-49
2022/02/08 20:32:20;;;;;;;9.10;4.50;;;4.00;99.90;;;;;;4951154;28;20053;-48
2022/02/08 20:34:45;;;;;;;6.72;3.70;;;4.00;99.90;;;;;;4950496;28;20039;-49
2022/02/08 20:37:11;;;;;;;6.25;3.92;;;4.00;99.90;;;;;;4952349;28;20643;-48
2022/02/08 20:39:37;;;;;;;7.82;4.40;;;4.00;99.90;;;;;;4946197;28;20038;-48
2022/02/08 20:42:05;;;;;;;6.18;4.03;;;4.00;99.90;;;;;;4954654;28;20086;-48
2022/02/08 20:44:32;;;;;;;8.77;4.63;;;4.10;99.90;;;;;;4951681;28;20082;-48
2022/02/08 20:47:06;;;;;;;6.75;3.85;;;4.10;99.90;;;;;;4949053;28;20035;-48
2022/02/08 20:49:32;;;;;;;10.45;3.80;;;4.10;99.90;;;;;;4944533;28;20082;-48
2022/02/08 20:51:58;;;;;;;7.85;4.43;;;4.10;99.90;;;;;;4948953;28;20559;-48